createdAt,value
2022-12-19T00:01:26.363Z,45.60
2022-12-19T00:06:21.180Z,46.30
2022-12-19T00:11:14.387Z,45.40
2022-12-19T00:16:08.333Z,47.00
2022-12-19T00:21:01.711Z,42.47
2022-12-19T00:25:55.736Z,44.63
2022-12-19T00:30:49.499Z,44.30
2022-12-19T00:35:44.215Z,45.30
2022-12-19T00:40:36.749Z,45.63
2022-12-19T00:45:30.699Z,43.73
2022-12-19T00:50:23.285Z,45.77
2022-12-19T00:55:18.791Z,44.30
2022-12-19T01:00:12.524Z,46.77
2022-12-19T01:05:07.040Z,44.47
2022-12-19T01:09:59.606Z,44.07
2022-12-19T01:14:55.194Z,44.67
2022-12-19T01:19:56.690Z,48.20
2022-12-19T01:24:50.619Z,45.70
2022-12-19T01:29:52.731Z,48.10
2022-12-19T01:34:45.599Z,48.93
2022-12-19T01:39:38.240Z,47.93
2022-12-19T01:44:35.062Z,46.00
2022-12-19T01:49:29.228Z,46.17
2022-12-19T01:54:23.377Z,45.70
2022-12-19T01:59:18.876Z,45.43
2022-12-19T02:04:12.950Z,48.17
2022-12-19T02:09:05.573Z,49.20
2022-12-19T02:13:58.490Z,47.50
2022-12-19T02:18:56.080Z,47.60
2022-12-19T02:24:02.081Z,44.90
2022-12-19T02:29:00.512Z,47.70
2022-12-19T02:33:56.685Z,46.87
2022-12-19T02:38:54.863Z,48.50
2022-12-19T02:43:50.721Z,47.83
2022-12-19T02:48:52.117Z,46.90
2022-12-19T02:53:46.709Z,47.00
2022-12-19T02:58:46.124Z,47.53
2022-12-19T03:03:44.957Z,45.67
2022-12-19T03:08:43.783Z,46.77
2022-12-19T03:13:39.341Z,46.77
2022-12-19T03:18:32.753Z,46.37
2022-12-19T03:23:25.287Z,49.13
2022-12-19T03:28:25.523Z,45.87
2022-12-19T03:33:20.600Z,45.83
2022-12-19T03:38:14.195Z,48.00
2022-12-19T03:43:12.016Z,48.97
2022-12-19T03:48:07.834Z,47.97
2022-12-19T03:53:06.343Z,46.77
2022-12-19T03:58:00.199Z,45.90
2022-12-19T04:02:55.230Z,50.50
2022-12-19T04:07:48.589Z,49.57
2022-12-19T04:12:44.835Z,47.10
2022-12-19T04:17:40.920Z,46.70
2022-12-19T04:22:34.711Z,47.50
2022-12-19T04:27:28.285Z,46.57
2022-12-19T04:32:22.870Z,45.60
2022-12-19T04:37:15.496Z,44.90
2022-12-19T04:42:08.026Z,48.13
2022-12-19T04:47:00.512Z,47.03
2022-12-19T04:51:54.376Z,51.83
2022-12-19T04:56:47.620Z,49.10
2022-12-19T05:01:40.256Z,48.80
2022-12-19T05:06:32.871Z,48.73
2022-12-19T05:11:26.747Z,47.17
2022-12-19T05:16:19.601Z,44.40
2022-12-19T05:21:12.304Z,46.60
2022-12-19T05:26:05.517Z,43.33
2022-12-19T05:31:05.135Z,43.60
2022-12-19T05:35:57.703Z,45.50
2022-12-19T05:40:50.331Z,45.43
2022-12-19T05:45:43.168Z,44.63
2022-12-19T05:50:37.041Z,45.80
2022-12-19T05:55:35.026Z,47.80
2022-12-19T06:00:27.551Z,49.67
2022-12-19T06:05:20.044Z,44.20
2022-12-19T06:10:13.962Z,42.10
2022-12-19T06:15:06.982Z,43.23
2022-12-19T06:19:59.503Z,41.30
2022-12-19T06:24:52.053Z,40.50
2022-12-19T06:29:45.938Z,42.80
2022-12-19T06:39:51.190Z,36.20
2022-12-19T06:44:44.246Z,33.87
2022-12-19T06:49:38.118Z,34.23
2022-12-19T06:54:31.436Z,31.40
2022-12-19T06:59:23.949Z,31.10
2022-12-19T07:04:19.674Z,30.23
2022-12-19T07:09:13.522Z,33.37
2022-12-19T07:14:06.261Z,31.53
2022-12-19T07:19:01.067Z,29.87
2022-12-19T07:23:53.602Z,30.17
2022-12-19T07:28:47.564Z,29.67
2022-12-19T07:33:40.064Z,27.93
2022-12-19T07:38:32.573Z,27.97
2022-12-19T07:43:25.068Z,26.93
2022-12-19T07:48:19.021Z,26.60
2022-12-19T07:53:11.575Z,28.47
2022-12-19T07:58:04.091Z,85.67
2022-12-19T08:02:56.687Z,28.33
2022-12-19T08:07:50.747Z,27.00
2022-12-19T08:12:43.351Z,26.30
2022-12-19T08:17:35.910Z,26.37
2022-12-19T08:22:29.929Z,24.77
2022-12-19T08:27:23.866Z,24.37
2022-12-19T08:32:20.948Z,25.20
2022-12-19T08:37:14.145Z,27.67
2022-12-19T08:42:06.640Z,25.87
2022-12-19T08:47:00.521Z,24.80
2022-12-19T08:51:53.020Z,23.20
2022-12-19T08:56:46.884Z,23.00
2022-12-19T09:01:40.320Z,23.47
2022-12-19T09:06:34.828Z,24.40
2022-12-19T09:11:27.470Z,24.77
2022-12-19T09:16:21.370Z,28.57
2022-12-19T09:21:14.695Z,22.30
2022-12-19T09:26:09.330Z,20.30
2022-12-19T09:31:02.681Z,19.00
2022-12-19T09:35:56.839Z,17.73
2022-12-19T09:40:56.534Z,17.90
2022-12-19T09:45:56.778Z,17.37
2022-12-19T09:50:53.017Z,20.70
2022-12-19T09:55:46.212Z,16.20
2022-12-19T10:00:40.596Z,17.93
2022-12-19T10:06:28.655Z,16.70
2022-12-19T10:12:38.105Z,15.23
2022-12-19T10:16:14.733Z,15.43
2022-12-19T10:21:10.530Z,16.83
2022-12-19T10:26:05.871Z,15.70
2022-12-19T10:31:12.623Z,15.70
2022-12-19T10:36:12.274Z,20.10
2022-12-19T10:41:12.305Z,19.37
2022-12-19T10:46:10.938Z,16.87
2022-12-19T10:51:06.783Z,19.67
2022-12-19T10:56:03.146Z,17.50
2022-12-19T11:01:06.974Z,15.70
2022-12-19T11:05:59.724Z,14.83
2022-12-19T11:13:22.237Z,17.33
2022-12-19T11:20:30.732Z,17.13
2022-12-19T11:29:30.942Z,20.10
2022-12-19T11:30:44.328Z,21.53
2022-12-19T11:32:38.745Z,21.03
2022-12-19T11:37:15.644Z,22.27
2022-12-19T11:42:12.077Z,20.77
2022-12-19T11:47:12.306Z,21.00
2022-12-19T11:52:29.442Z,21.53
2022-12-19T11:57:23.443Z,20.43
2022-12-19T12:02:30.177Z,22.00
2022-12-19T12:08:27.130Z,21.73
2022-12-19T12:19:44.489Z,20.57
2022-12-19T12:31:28.206Z,21.23
2022-12-19T12:31:38.460Z,20.00
2022-12-19T12:31:38.593Z,26.70
2022-12-19T12:35:46.914Z,19.43
2022-12-19T12:39:24.341Z,22.73
2022-12-19T12:44:32.667Z,23.60
2022-12-19T12:49:34.500Z,23.93
2022-12-19T12:54:29.596Z,25.40
2022-12-19T12:59:23.866Z,24.77
2022-12-19T13:04:20.763Z,26.13
2022-12-19T13:09:25.062Z,26.27
2022-12-19T13:14:32.484Z,25.67
2022-12-19T13:19:28.747Z,26.60
2022-12-19T13:24:23.322Z,29.50
2022-12-19T13:29:30.079Z,26.27
2022-12-19T13:34:22.616Z,24.70
2022-12-19T13:40:01.730Z,25.73
2022-12-19T13:44:40.810Z,27.30
2022-12-19T13:49:35.401Z,27.30
2022-12-19T13:54:32.870Z,27.37
2022-12-19T13:59:26.790Z,25.50
2022-12-19T14:04:26.581Z,26.30
2022-12-19T14:11:28.470Z,28.17
2022-12-19T14:15:13.327Z,26.97
2022-12-19T14:22:02.813Z,26.97
2022-12-19T14:26:06.088Z,29.90
2022-12-19T14:30:39.313Z,30.13
2022-12-19T14:36:05.799Z,31.20
2022-12-19T14:41:07.878Z,33.50
2022-12-19T14:52:35.005Z,34.90
2022-12-19T14:54:39.877Z,35.80
2022-12-19T14:56:59.013Z,36.20
2022-12-19T15:01:55.743Z,36.03
2022-12-19T15:07:09.669Z,39.50
2022-12-19T15:14:46.908Z,38.50
2022-12-19T15:17:44.877Z,39.17
2022-12-19T15:22:37.549Z,45.67
2022-12-19T15:27:30.117Z,35.53
2022-12-19T15:32:23.198Z,36.23
2022-12-19T15:37:18.239Z,36.20
2022-12-19T15:42:16.973Z,35.43
2022-12-19T15:47:16.693Z,70.30
2022-12-19T15:52:14.283Z,40.70
2022-12-19T15:57:16.354Z,44.97
2022-12-19T16:02:15.802Z,44.23
2022-12-19T16:07:10.830Z,39.77
2022-12-19T16:12:03.396Z,38.80
2022-12-19T16:16:57.507Z,37.40
2022-12-19T16:21:50.161Z,41.60
2022-12-19T16:26:42.842Z,49.93
2022-12-19T16:31:35.379Z,38.40
2022-12-19T16:36:29.280Z,53.00
2022-12-19T16:41:22.959Z,46.00
2022-12-19T16:46:17.563Z,44.77
2022-12-19T16:51:16.287Z,49.93
2022-12-19T16:56:15.581Z,42.87
2022-12-19T17:01:10.648Z,105.50
2022-12-19T17:06:03.358Z,50.20
2022-12-19T17:10:55.880Z,41.50
2022-12-19T17:15:56.766Z,45.30
2022-12-19T17:20:50.590Z,48.53
2022-12-19T17:25:43.398Z,42.93
2022-12-19T17:30:36.403Z,46.77
2022-12-19T17:35:32.330Z,40.00
2022-12-19T17:40:25.916Z,36.87
2022-12-19T17:45:18.656Z,33.67
2022-12-19T17:50:22.594Z,34.47
2022-12-19T17:55:18.307Z,32.50
2022-12-19T18:00:11.301Z,36.90
2022-12-19T18:05:05.037Z,36.07
2022-12-19T18:09:57.576Z,38.63
2022-12-19T18:14:51.681Z,39.77
2022-12-19T18:19:44.192Z,39.90
2022-12-19T18:24:36.692Z,39.17
2022-12-19T18:29:29.173Z,37.77
2022-12-19T18:34:24.970Z,41.50
2022-12-19T18:39:20.338Z,41.30
2022-12-19T18:44:12.881Z,43.53
2022-12-19T18:49:06.477Z,40.63
2022-12-19T18:54:00.440Z,41.90
2022-12-19T18:58:53.042Z,46.97
2022-12-19T19:03:49.622Z,46.57
2022-12-19T19:08:42.365Z,53.53
2022-12-19T19:14:14.475Z,44.53
2022-12-19T19:19:08.143Z,45.60
2022-12-19T19:24:04.151Z,43.37
2022-12-19T19:28:56.717Z,45.87
2022-12-19T19:33:51.818Z,42.17
2022-12-19T19:38:46.532Z,46.93
2022-12-19T19:43:39.100Z,41.30
2022-12-19T19:48:31.931Z,66.50
2022-12-19T19:53:25.881Z,49.30
2022-12-19T19:58:18.492Z,43.03
2022-12-19T20:03:16.809Z,105.47
2022-12-19T20:08:13.277Z,47.40
2022-12-19T20:13:07.253Z,44.90
2022-12-19T20:18:00.000Z,46.67
2022-12-19T20:22:52.664Z,52.13
2022-12-19T20:27:45.206Z,46.03
2022-12-19T20:32:39.350Z,49.53
2022-12-19T20:37:32.866Z,38.90
2022-12-19T20:42:25.477Z,40.40
2022-12-19T20:47:18.016Z,38.97
2022-12-19T20:52:11.955Z,38.43
2022-12-19T20:57:04.892Z,36.63
2022-12-19T21:01:58.229Z,34.37
2022-12-19T21:06:50.855Z,34.40
2022-12-19T21:11:44.824Z,33.40
2022-12-19T21:16:37.423Z,32.43
2022-12-19T21:21:30.217Z,32.67
2022-12-19T21:26:23.835Z,30.50
2022-12-19T21:31:19.756Z,30.13
2022-12-19T21:36:13.942Z,30.60
2022-12-19T21:41:07.297Z,32.47
2022-12-19T21:46:07.042Z,32.53
2022-12-19T21:51:00.985Z,33.50
2022-12-19T21:55:53.559Z,33.33
2022-12-19T22:00:48.710Z,32.03
2022-12-19T22:05:41.297Z,31.17
2022-12-19T22:10:35.222Z,31.80
2022-12-19T22:15:27.778Z,30.40
2022-12-19T22:20:20.358Z,35.37
2022-12-19T22:25:12.911Z,36.27
2022-12-19T22:30:11.142Z,41.30
2022-12-19T22:35:04.148Z,38.67
2022-12-19T22:40:00.787Z,37.97
2022-12-19T22:44:54.377Z,47.23
2022-12-19T22:49:52.213Z,49.27
2022-12-19T22:54:45.957Z,49.23
2022-12-19T22:59:38.939Z,50.80
2022-12-19T23:04:31.699Z,48.13
2022-12-19T23:09:25.801Z,43.80
2022-12-19T23:14:19.478Z,42.83
2022-12-19T23:19:13.297Z,39.13
2022-12-19T23:24:07.065Z,41.87
2022-12-19T23:29:03.895Z,34.30
2022-12-19T23:33:57.195Z,36.73
2022-12-19T23:38:53.404Z,37.47
2022-12-19T23:43:46.033Z,33.23
2022-12-19T23:48:39.937Z,29.10
2022-12-19T23:53:33.480Z,27.30
2022-12-19T23:58:26.428Z,22.10
